Web Počasí Slunečno.cz™ (Podmínky, ePrivacy) používá cookies a personalizace pro reklamní účely. Pohybem po stránce vyjadřujete souhlas. Odejít

Aktuální počasí v Česku a ve světě - METAR

Seznam meteostanic umístěných nejčasteji na letišti v ČR a ve světě

Vyhledat místa podle abecedy:
A B C D E F G H I J K L M N O P Q R S T U V W X Y Z

Filtrovat:

ID stanice:
a/nebo
Název místa (fulltext):
 
Místo (ID)Naposledy načteno 
Ústí nad Labem - Kočkov (Usti n/L) 04.12.2021 11:00 UTC Zobrazit data
Místo: Ústí nad Labem - Kočkov
Teplota: -1 °C (pocitová: -10.6 °C)
Vítr: 5 m/s z(e) 180°
Počasí: zataženo
Dohlednost: 10 km
Zákl. oblačnosti: 8/8 120 m
Vlhkost: 93%
Ústí nad Orlicí (Usti n/O) 04.12.2021 11:00 UTC Zobrazit data
Místo: Ústí nad Orlicí
Teplota: 0 °C (pocitová: -8.4 °C)
Vítr: 4 m/s z(e) 130°
Počasí: skoro zataženo
Dohlednost: 25 km
Zákl. oblačnosti: 1/8 450 m;5/8 1500 m
Vlhkost: 75%
Ulaanbaatar (ZMUB) 20.02.2019 12:00 UTC Zobrazit METAR
ZMUB 201200Z CAVOK M14/M25 Q1021 NOSIG RMK QFE657.8 33
Uvea Island (NLWW) 04.12.2021 11:00 UTC Zobrazit METAR
NLWW 041100Z AUTO 35005KT 320V020 9999 FEW021/// SCT098/// BKN250/// 27/24 Q1008 TEMPO 05015G25KT 1200 TSRA BKN008 BKN010 SCT015CB
Uzhhorod (UKLU) 28.11.2020 09:00 UTC Zobrazit METAR
UKLU 280900Z 8000 OVC012 M00/M01 Q1022 R10/690330 NOSIG
Reklama

Reklama


Newslettter

Počasí na Váš email

Každý den Vám pošleme předpověď
Emaily chodí ráno a bez reklamy



Odhlásit newsletter

Reklama